createdAt,value
2022-10-15T00:01:53.492Z,1.52
2022-10-15T00:04:19.914Z,1.70
2022-10-15T00:06:46.203Z,1.83
2022-10-15T00:09:12.579Z,1.42
2022-10-15T00:11:40.044Z,1.65
2022-10-15T00:14:06.336Z,1.70
2022-10-15T00:16:33.515Z,1.70
2022-10-15T00:18:59.990Z,1.83
2022-10-15T00:21:26.362Z,1.60
2022-10-15T00:23:52.937Z,1.70
2022-10-15T00:26:24.044Z,1.80
2022-10-15T00:28:51.876Z,1.50
2022-10-15T00:31:20.754Z,1.70
2022-10-15T00:33:49.508Z,1.77
2022-10-15T00:36:21.155Z,1.42
2022-10-15T00:38:47.871Z,1.48
2022-10-15T00:41:23.223Z,1.63
2022-10-15T00:43:55.673Z,1.63
2022-10-15T00:46:41.949Z,1.60
2022-10-15T00:49:16.724Z,1.43
2022-10-15T00:51:45.068Z,1.60
2022-10-15T00:54:12.169Z,1.55
2022-10-15T00:56:40.273Z,1.63
2022-10-15T00:59:06.907Z,1.90
2022-10-15T01:01:33.323Z,1.60
2022-10-15T01:04:01.358Z,1.70
2022-10-15T01:06:27.757Z,1.63
2022-10-15T01:08:54.393Z,1.33
2022-10-15T01:11:38.706Z,1.40
2022-10-15T01:14:38.828Z,1.58
2022-10-15T01:17:17.546Z,1.55
2022-10-15T01:20:31.167Z,1.50
2022-10-15T01:23:28.359Z,1.60
2022-10-15T01:26:26.201Z,1.58
2022-10-15T01:29:29.578Z,1.30
2022-10-15T01:32:14.190Z,1.65
2022-10-15T01:34:48.066Z,1.60
2022-10-15T01:37:19.309Z,1.52
2022-10-15T01:39:54.683Z,1.60
2022-10-15T01:42:28.002Z,1.63
2022-10-15T01:44:58.631Z,1.38
2022-10-15T01:47:30.884Z,1.60
2022-10-15T01:49:59.417Z,1.52
2022-10-15T01:55:02.170Z,1.30
2022-10-15T01:57:30.242Z,1.50
2022-10-15T01:59:57.627Z,1.50
2022-10-15T02:02:24.459Z,1.70
2022-10-15T02:04:50.999Z,1.25
2022-10-15T02:07:33.698Z,1.50
2022-10-15T02:10:31.769Z,1.60
2022-10-15T02:13:22.398Z,1.33
2022-10-15T02:15:54.662Z,1.50
2022-10-15T02:18:48.852Z,1.60
2022-10-15T02:21:21.808Z,1.38
2022-10-15T02:23:59.706Z,1.30
2022-10-15T02:26:27.977Z,1.55
2022-10-15T02:28:57.491Z,1.63
2022-10-15T02:31:25.941Z,1.50
2022-10-15T02:33:54.514Z,1.33
2022-10-15T02:36:21.395Z,1.42
2022-10-15T02:38:48.755Z,1.50
2022-10-15T02:41:16.444Z,1.30
2022-10-15T02:43:42.856Z,1.40
2022-10-15T02:46:10.263Z,1.50
2022-10-15T02:48:36.567Z,1.27
2022-10-15T02:51:02.891Z,1.50
2022-10-15T02:53:29.202Z,1.27
2022-10-15T02:55:55.495Z,1.23
2022-10-15T02:58:21.791Z,1.30
2022-10-15T03:00:49.175Z,1.60
2022-10-15T03:03:16.175Z,1.30
2022-10-15T03:05:43.068Z,1.60
2022-10-15T03:08:09.350Z,1.15
2022-10-15T03:10:35.647Z,1.20
2022-10-15T03:13:03.537Z,1.50
2022-10-15T03:15:29.919Z,1.58
2022-10-15T03:17:56.219Z,1.30
2022-10-15T03:20:23.248Z,1.38
2022-10-15T03:22:49.538Z,1.17
2022-10-15T03:25:16.074Z,1.30
2022-10-15T03:27:42.389Z,1.40
2022-10-15T03:30:09.122Z,1.60
2022-10-15T03:32:36.330Z,1.60
2022-10-15T03:35:03.125Z,1.35
2022-10-15T03:37:29.443Z,1.35
2022-10-15T03:39:55.777Z,1.20
2022-10-15T03:42:22.382Z,1.33
2022-10-15T03:44:48.889Z,1.40
2022-10-15T03:47:15.201Z,1.50
2022-10-15T03:49:41.495Z,1.52
2022-10-15T03:52:07.828Z,1.57
2022-10-15T03:54:34.126Z,1.40
2022-10-15T03:57:00.441Z,1.37
2022-10-15T03:59:26.777Z,1.40
2022-10-15T04:01:53.068Z,1.50
2022-10-15T04:04:19.354Z,1.10
2022-10-15T04:06:47.741Z,1.42
2022-10-15T04:09:14.433Z,1.80
2022-10-15T04:11:40.808Z,1.25
2022-10-15T04:14:07.097Z,1.25
2022-10-15T04:16:33.732Z,1.33
2022-10-15T04:19:00.015Z,1.43
2022-10-15T04:21:26.543Z,1.30
2022-10-15T04:23:52.840Z,1.50
2022-10-15T04:26:19.921Z,1.50
2022-10-15T04:28:48.301Z,1.27
2022-10-15T04:31:15.481Z,1.92
2022-10-15T04:33:41.779Z,1.20
2022-10-15T04:36:12.467Z,1.40
2022-10-15T04:38:38.785Z,1.42
2022-10-15T04:41:07.155Z,1.60
2022-10-15T04:43:33.851Z,2.10
2022-10-15T04:46:01.328Z,1.50
2022-10-15T04:48:28.715Z,1.65
2022-10-15T04:50:55.390Z,1.60
2022-10-15T04:53:22.107Z,1.85
2022-10-15T04:55:48.430Z,1.85
2022-10-15T04:58:14.769Z,1.30
2022-10-15T05:00:41.128Z,1.30
2022-10-15T05:03:07.674Z,1.25
2022-10-15T05:05:34.030Z,1.30
2022-10-15T05:08:01.558Z,1.20
2022-10-15T05:10:28.113Z,1.58
2022-10-15T05:12:56.724Z,1.70
2022-10-15T05:15:25.734Z,1.20
2022-10-15T05:17:52.015Z,1.10
2022-10-15T05:20:18.333Z,1.10
2022-10-15T05:22:44.631Z,1.10
2022-10-15T05:25:10.931Z,1.27
2022-10-15T05:27:37.281Z,1.37
2022-10-15T05:30:04.409Z,1.10
2022-10-15T05:32:30.717Z,1.10
2022-10-15T05:34:57.003Z,1.25
2022-10-15T05:37:23.863Z,1.02
2022-10-15T05:39:50.422Z,1.30
2022-10-15T05:42:16.731Z,1.30
2022-10-15T05:44:43.013Z,1.33
2022-10-15T05:47:11.799Z,1.30
2022-10-15T05:49:38.133Z,1.20
2022-10-15T05:52:04.539Z,1.10
2022-10-15T05:54:30.830Z,1.13
2022-10-15T05:56:57.143Z,1.10
2022-10-15T05:59:23.424Z,0.90
2022-10-15T06:01:49.933Z,1.30
2022-10-15T06:04:16.943Z,1.50
2022-10-15T06:06:43.251Z,1.90
2022-10-15T06:09:09.539Z,1.60
2022-10-15T06:11:36.536Z,1.80
2022-10-15T06:14:02.889Z,1.73
2022-10-15T06:16:29.193Z,1.55
2022-10-15T06:18:55.494Z,2.00
2022-10-15T06:21:21.994Z,1.40
2022-10-15T06:23:48.346Z,1.45
2022-10-15T06:26:14.661Z,1.13
2022-10-15T06:28:41.037Z,1.10
2022-10-15T06:31:07.957Z,1.00
2022-10-15T06:33:35.173Z,1.20
2022-10-15T06:36:06.883Z,1.30
2022-10-15T06:38:33.436Z,1.10
2022-10-15T06:40:59.927Z,1.13
2022-10-15T06:43:28.720Z,1.30
2022-10-15T06:45:58.738Z,1.40
2022-10-15T06:48:25.050Z,1.80
2022-10-15T06:50:51.377Z,1.60
2022-10-15T06:53:17.797Z,1.50
2022-10-15T06:55:44.170Z,1.55
2022-10-15T06:58:10.466Z,1.95
2022-10-15T07:00:36.762Z,1.90
2022-10-15T07:03:04.767Z,1.85
2022-10-15T07:05:31.267Z,1.92
2022-10-15T07:07:58.211Z,1.70
2022-10-15T07:10:26.221Z,1.40
2022-10-15T07:12:53.986Z,1.45
2022-10-15T07:15:21.134Z,1.50
2022-10-15T07:17:48.805Z,1.60
2022-10-15T07:20:17.767Z,1.70
2022-10-15T07:22:46.823Z,1.40
2022-10-15T07:25:13.196Z,1.40
2022-10-15T07:27:39.663Z,1.40
2022-10-15T07:30:07.525Z,1.38
2022-10-15T07:32:34.687Z,1.23
2022-10-15T07:35:00.971Z,1.70
2022-10-15T07:37:27.292Z,1.50
2022-10-15T07:39:53.613Z,1.63
2022-10-15T07:42:20.408Z,1.45
2022-10-15T07:44:46.724Z,1.30
2022-10-15T07:47:13.011Z,1.27
2022-10-15T07:49:39.294Z,1.27
2022-10-15T07:52:07.739Z,1.60
2022-10-15T07:54:34.450Z,1.30
2022-10-15T07:57:00.757Z,1.10
2022-10-15T07:59:27.073Z,1.30
2022-10-15T08:01:53.572Z,1.23
2022-10-15T08:04:20.491Z,1.10
2022-10-15T08:06:47.054Z,1.20
2022-10-15T08:09:13.358Z,1.40
2022-10-15T08:11:39.690Z,1.10
2022-10-15T08:14:06.028Z,1.17
2022-10-15T08:16:32.358Z,1.40
2022-10-15T08:18:59.707Z,1.15
2022-10-15T08:21:26.059Z,1.20
2022-10-15T08:23:52.523Z,1.23
2022-10-15T08:26:19.154Z,1.52
2022-10-15T08:28:45.766Z,1.40
2022-10-15T08:31:12.115Z,1.63
2022-10-15T08:33:38.411Z,1.27
2022-10-15T08:36:06.305Z,1.48
2022-10-15T08:38:32.784Z,1.35
2022-10-15T08:41:00.806Z,1.25
2022-10-15T08:43:38.709Z,1.17
2022-10-15T08:46:11.677Z,1.40
2022-10-15T08:48:42.734Z,2.58
2022-10-15T08:51:11.339Z,2.40
2022-10-15T08:53:42.170Z,2.35
2022-10-15T08:56:18.265Z,2.30
2022-10-15T08:58:59.815Z,1.80
2022-10-15T09:01:38.190Z,1.52
2022-10-15T09:04:32.952Z,1.50
2022-10-15T09:07:11.530Z,1.35
2022-10-15T09:09:58.302Z,1.30
2022-10-15T09:12:48.420Z,1.40
2022-10-15T09:15:21.570Z,1.70
2022-10-15T09:17:51.978Z,1.10
2022-10-15T09:20:21.363Z,1.50
2022-10-15T09:22:51.828Z,0.95
2022-10-15T09:25:21.446Z,1.40
2022-10-15T09:27:49.313Z,1.20
2022-10-15T09:30:46.027Z,1.30
2022-10-15T09:33:27.964Z,1.05
2022-10-15T09:36:09.591Z,1.30
2022-10-15T09:38:52.483Z,1.00
2022-10-15T09:41:37.491Z,1.30
2022-10-15T09:44:06.976Z,1.30
2022-10-15T09:46:33.768Z,1.20
2022-10-15T09:49:07.183Z,1.00
2022-10-15T09:51:40.999Z,1.20
2022-10-15T09:54:13.498Z,1.38
2022-10-15T09:56:46.115Z,1.20
2022-10-15T09:59:17.574Z,1.25
2022-10-15T10:02:19.996Z,1.13
2022-10-15T10:04:46.415Z,1.00
2022-10-15T10:07:28.344Z,1.27
2022-10-15T10:09:56.912Z,0.90
2022-10-15T10:12:28.266Z,0.85
2022-10-15T10:14:56.983Z,1.00
2022-10-15T10:17:25.250Z,1.13
2022-10-15T10:20:10.062Z,0.90
2022-10-15T10:22:47.684Z,1.10
2022-10-15T10:25:27.519Z,1.02
2022-10-15T10:27:54.928Z,1.30
2022-10-15T10:30:21.347Z,1.10
2022-10-15T10:32:47.959Z,1.20
2022-10-15T10:35:23.404Z,1.10
2022-10-15T10:37:50.758Z,1.42
2022-10-15T10:40:23.270Z,1.50
2022-10-15T10:43:09.481Z,1.20
2022-10-15T10:45:35.908Z,1.20
2022-10-15T10:48:23.206Z,1.00
2022-10-15T10:51:02.210Z,1.13
2022-10-15T10:53:28.518Z,1.10
2022-10-15T10:55:55.524Z,1.00
2022-10-15T10:58:26.409Z,1.63
2022-10-15T11:00:55.395Z,1.20
2022-10-15T11:03:39.895Z,0.93
2022-10-15T11:06:11.933Z,1.00
2022-10-15T11:08:44.122Z,1.05
2022-10-15T11:11:22.498Z,1.00
2022-10-15T11:14:08.473Z,1.00
2022-10-15T11:16:45.598Z,1.00
2022-10-15T11:19:59.616Z,0.90
2022-10-15T11:22:43.579Z,0.90
2022-10-15T11:25:15.910Z,0.70
2022-10-15T11:27:45.222Z,0.80
2022-10-15T11:30:39.405Z,0.88
2022-10-15T11:33:20.221Z,1.00
2022-10-15T11:35:54.446Z,0.90
2022-10-15T11:38:29.490Z,1.00
2022-10-15T11:41:29.230Z,1.05
2022-10-15T11:43:55.446Z,0.90
2022-10-15T11:46:44.099Z,0.93
2022-10-15T11:49:22.454Z,0.90
2022-10-15T11:52:07.440Z,1.00
2022-10-15T11:54:36.594Z,0.85
2022-10-15T11:57:04.043Z,0.80
2022-10-15T11:59:44.962Z,0.88
2022-10-15T12:02:19.441Z,0.70
2022-10-15T12:04:49.447Z,0.80
2022-10-15T12:07:20.318Z,1.08
2022-10-15T12:09:50.429Z,1.10
2022-10-15T12:12:41.723Z,1.00
2022-10-15T12:15:14.197Z,1.00
2022-10-15T12:17:48.514Z,1.00
2022-10-15T12:20:20.066Z,0.80
2022-10-15T12:22:46.263Z,0.80
2022-10-15T12:25:34.323Z,0.98
2022-10-15T12:28:03.185Z,0.70
2022-10-15T12:30:34.228Z,0.88
2022-10-15T12:33:01.577Z,0.60
2022-10-15T12:35:36.552Z,0.60
2022-10-15T12:38:20.889Z,0.70
2022-10-15T12:40:55.654Z,0.80
2022-10-15T12:43:22.266Z,0.60
2022-10-15T12:45:56.983Z,0.60
2022-10-15T12:48:31.770Z,0.50
2022-10-15T12:51:23.340Z,0.55
2022-10-15T12:53:51.068Z,0.60
2022-10-15T12:56:17.332Z,0.47
2022-10-15T12:58:46.238Z,0.40
2022-10-15T13:01:15.337Z,0.32
2022-10-15T13:03:45.216Z,0.50
2022-10-15T13:06:20.740Z,0.40
2022-10-15T13:09:12.009Z,0.43
2022-10-15T13:14:37.226Z,0.45
2022-10-15T13:17:06.976Z,0.50
2022-10-15T13:19:41.676Z,0.35
2022-10-15T13:22:21.504Z,0.30
2022-10-15T13:24:47.988Z,0.30
2022-10-15T13:27:23.059Z,0.30
2022-10-15T13:30:14.039Z,0.40
2022-10-15T13:32:46.077Z,0.50
2022-10-15T13:35:19.904Z,0.50
2022-10-15T13:37:46.769Z,0.40
2022-10-15T13:40:29.931Z,0.40
2022-10-15T13:43:03.627Z,0.32
2022-10-15T13:45:30.331Z,0.40
2022-10-15T13:47:56.754Z,0.35
2022-10-15T13:50:34.583Z,0.32
2022-10-15T13:53:19.550Z,0.40
2022-10-15T13:55:47.589Z,0.50
2022-10-15T13:58:27.724Z,0.40
2022-10-15T14:01:13.115Z,0.50
2022-10-15T14:03:46.379Z,0.40
2022-10-15T14:06:27.429Z,0.40
2022-10-15T14:08:56.250Z,0.40
2022-10-15T14:11:23.218Z,0.50
2022-10-15T14:13:51.562Z,0.52
2022-10-15T14:16:33.523Z,0.40
2022-10-15T14:19:06.508Z,0.50
2022-10-15T14:21:33.612Z,0.40
2022-10-15T14:24:11.266Z,0.30
2022-10-15T14:26:39.072Z,0.50
2022-10-15T14:29:06.615Z,0.60
2022-10-15T14:31:38.597Z,0.40
2022-10-15T14:34:05.778Z,0.35
2022-10-15T14:36:41.919Z,0.50
2022-10-15T14:39:34.738Z,0.60
2022-10-15T14:42:02.719Z,0.38
2022-10-15T14:44:46.745Z,0.35
2022-10-15T14:47:27.518Z,0.30
2022-10-15T14:49:56.530Z,0.45
2022-10-15T14:52:22.994Z,0.50
2022-10-15T14:55:02.931Z,0.32
2022-10-15T14:57:32.266Z,0.40
2022-10-15T14:59:59.042Z,0.55
2022-10-15T15:02:27.447Z,0.40
2022-10-15T15:05:14.808Z,0.40
2022-10-15T15:07:41.131Z,0.25
2022-10-15T15:10:08.966Z,0.32
2022-10-15T15:12:36.019Z,0.30
2022-10-15T15:15:02.440Z,0.45
2022-10-15T15:17:30.131Z,0.40
2022-10-15T15:19:57.761Z,0.40
2022-10-15T15:22:29.610Z,0.30
2022-10-15T15:24:58.206Z,0.50
2022-10-15T15:27:30.527Z,0.40
2022-10-15T15:29:57.318Z,0.30
2022-10-15T15:32:24.784Z,0.20
2022-10-15T15:34:52.460Z,0.35
2022-10-15T15:37:23.339Z,0.30
2022-10-15T15:39:50.046Z,0.50
2022-10-15T15:42:18.955Z,0.30
2022-10-15T15:44:45.442Z,0.45
2022-10-15T15:47:12.162Z,0.40
2022-10-15T15:49:38.918Z,0.40
2022-10-15T15:52:09.716Z,0.43
2022-10-15T15:54:36.011Z,0.30
2022-10-15T15:57:02.294Z,0.47
2022-10-15T15:59:28.630Z,0.40
2022-10-15T16:01:55.082Z,0.38
2022-10-15T16:04:21.724Z,0.40
2022-10-15T16:06:48.827Z,0.30
2022-10-15T16:09:16.954Z,0.32
2022-10-15T16:11:43.427Z,0.38
2022-10-15T16:14:09.757Z,0.35
2022-10-15T16:16:36.117Z,0.65
2022-10-15T16:19:03.225Z,0.50
2022-10-15T16:21:29.527Z,0.50
2022-10-15T16:23:55.875Z,0.30
2022-10-15T16:26:22.442Z,0.70
2022-10-15T16:28:48.834Z,0.50
2022-10-15T16:31:22.144Z,0.52
2022-10-15T16:33:50.616Z,0.50
2022-10-15T16:36:17.423Z,0.50
2022-10-15T16:38:45.001Z,0.57
2022-10-15T16:41:12.382Z,0.40
2022-10-15T16:43:38.726Z,0.63
2022-10-15T16:46:05.766Z,0.40
2022-10-15T16:48:33.046Z,0.50
2022-10-15T16:51:04.408Z,0.60
2022-10-15T16:53:32.604Z,0.90
2022-10-15T16:56:01.048Z,0.60
2022-10-15T16:58:28.797Z,0.90
2022-10-15T17:00:58.928Z,1.90
2022-10-15T17:03:25.236Z,0.50
2022-10-15T17:05:58.799Z,0.70
2022-10-15T17:08:29.949Z,0.70
2022-10-15T17:10:57.299Z,0.70
2022-10-15T17:13:23.608Z,0.60
2022-10-15T17:15:49.939Z,0.73
2022-10-15T17:18:16.308Z,0.50
2022-10-15T17:20:47.048Z,0.50
2022-10-15T17:23:13.802Z,0.60
2022-10-15T17:25:40.215Z,0.45
2022-10-15T17:28:09.278Z,0.40
2022-10-15T17:30:37.944Z,0.80
2022-10-15T17:33:05.226Z,0.90
2022-10-15T17:35:35.902Z,0.82
2022-10-15T17:38:02.249Z,0.45
2022-10-15T17:40:28.544Z,0.60
2022-10-15T17:42:55.724Z,0.47
2022-10-15T17:45:23.079Z,0.60
2022-10-15T17:47:49.834Z,0.70
2022-10-15T17:50:16.599Z,0.50
2022-10-15T17:52:42.953Z,0.65
2022-10-15T17:55:09.414Z,0.43
2022-10-15T17:57:35.711Z,0.40
2022-10-15T18:00:02.014Z,0.50
2022-10-15T18:02:28.329Z,0.60
2022-10-15T18:04:54.643Z,0.57
2022-10-15T18:07:20.969Z,0.40
2022-10-15T18:09:47.282Z,0.40
2022-10-15T18:12:13.633Z,0.47
2022-10-15T18:14:39.952Z,0.50
2022-10-15T18:17:06.266Z,0.30
2022-10-15T18:19:32.543Z,0.40
2022-10-15T18:21:59.055Z,0.50
2022-10-15T18:24:25.386Z,0.40
2022-10-15T18:26:52.198Z,0.50
2022-10-15T18:29:18.709Z,0.40
2022-10-15T18:31:45.143Z,0.40
2022-10-15T18:34:11.442Z,0.40
2022-10-15T18:36:41.348Z,0.68
2022-10-15T18:39:07.727Z,0.70
2022-10-15T18:41:35.603Z,0.90
2022-10-15T18:44:04.386Z,0.75
2022-10-15T18:46:31.495Z,0.43
2022-10-15T18:48:58.272Z,0.52
2022-10-15T18:51:27.685Z,0.43
2022-10-15T18:53:54.037Z,0.40
2022-10-15T18:56:21.222Z,0.50
2022-10-15T18:58:47.610Z,0.40
2022-10-15T19:01:27.510Z,0.38
2022-10-15T19:03:55.069Z,0.50
2022-10-15T19:06:24.021Z,0.50
2022-10-15T19:08:50.886Z,0.40
2022-10-15T19:11:17.281Z,0.40
2022-10-15T19:13:43.594Z,0.50
2022-10-15T19:16:09.889Z,0.40
2022-10-15T19:18:37.106Z,0.50
2022-10-15T19:21:04.706Z,0.40
2022-10-15T19:23:31.045Z,0.40
2022-10-15T19:25:57.912Z,0.40
2022-10-15T19:28:25.325Z,0.45
2022-10-15T19:30:56.145Z,0.30
2022-10-15T19:33:22.472Z,0.50
2022-10-15T19:35:48.815Z,0.47
2022-10-15T19:38:15.287Z,0.40
2022-10-15T19:40:44.749Z,0.40
2022-10-15T19:43:13.758Z,0.38
2022-10-15T19:45:44.862Z,0.98
2022-10-15T19:48:12.852Z,0.90
2022-10-15T19:50:41.073Z,0.50
2022-10-15T19:53:07.986Z,0.60
2022-10-15T19:55:34.287Z,1.10
2022-10-15T19:58:00.822Z,0.60
2022-10-15T20:00:27.122Z,0.50
2022-10-15T20:02:53.456Z,0.32
2022-10-15T20:05:19.766Z,0.40
2022-10-15T20:07:46.199Z,0.40
2022-10-15T20:10:12.695Z,0.52
2022-10-15T20:12:39.027Z,0.50
2022-10-15T20:15:05.975Z,0.57
2022-10-15T20:17:32.287Z,0.60
2022-10-15T20:19:58.582Z,0.60
2022-10-15T20:22:25.102Z,0.68
2022-10-15T20:24:51.572Z,0.63
2022-10-15T20:27:17.895Z,0.50
2022-10-15T20:29:44.207Z,0.40
2022-10-15T20:32:23.367Z,0.40
2022-10-15T20:35:00.327Z,0.60
2022-10-15T20:37:26.601Z,0.40
2022-10-15T20:39:52.944Z,0.50
2022-10-15T20:42:19.242Z,0.60
2022-10-15T20:44:45.741Z,0.50
2022-10-15T20:47:14.298Z,0.43
2022-10-15T20:49:44.951Z,0.47
2022-10-15T20:52:11.564Z,0.40
2022-10-15T20:54:38.206Z,0.50
2022-10-15T20:57:04.731Z,0.40
2022-10-15T20:59:31.053Z,0.40
2022-10-15T21:01:57.419Z,0.50
2022-10-15T21:04:23.781Z,0.43
2022-10-15T21:06:50.090Z,0.40
2022-10-15T21:09:16.386Z,0.50
2022-10-15T21:11:44.510Z,0.50
2022-10-15T21:14:12.278Z,0.40
2022-10-15T21:16:39.574Z,0.47
2022-10-15T21:19:05.995Z,0.40
2022-10-15T21:21:35.014Z,0.50
2022-10-15T21:24:01.324Z,0.40
2022-10-15T21:26:27.678Z,0.40
2022-10-15T21:28:58.568Z,0.40
2022-10-15T21:31:25.926Z,0.50
2022-10-15T21:33:54.633Z,0.43
2022-10-15T21:36:22.778Z,0.52
2022-10-15T21:39:02.234Z,0.60
2022-10-15T21:41:31.204Z,0.45
2022-10-15T21:43:58.381Z,0.50
2022-10-15T21:46:25.079Z,0.40
2022-10-15T21:48:52.665Z,0.60
2022-10-15T21:51:20.826Z,0.70
2022-10-15T21:53:47.286Z,0.40
2022-10-15T21:56:13.946Z,0.60
2022-10-15T21:58:41.106Z,0.40
2022-10-15T22:01:14.529Z,0.30
2022-10-15T22:03:44.224Z,0.60
2022-10-15T22:06:11.590Z,0.40
2022-10-15T22:08:38.491Z,0.45
2022-10-15T22:11:15.193Z,0.40
2022-10-15T22:13:43.378Z,0.38
2022-10-15T22:16:10.511Z,0.40
2022-10-15T22:18:37.567Z,0.40
2022-10-15T22:21:18.611Z,0.50
2022-10-15T22:23:47.065Z,0.40
2022-10-15T22:26:14.643Z,0.50
2022-10-15T22:28:41.146Z,0.40
2022-10-15T22:31:10.063Z,0.50
2022-10-15T22:33:36.365Z,0.40
2022-10-15T22:36:04.897Z,0.50
2022-10-15T22:38:31.762Z,0.43
2022-10-15T22:40:58.132Z,0.50
2022-10-15T22:43:25.010Z,0.40
2022-10-15T22:45:51.435Z,0.40
2022-10-15T22:48:17.762Z,0.55
2022-10-15T22:50:44.078Z,0.47
2022-10-15T22:53:10.678Z,0.50
2022-10-15T22:55:36.994Z,0.40
2022-10-15T22:58:03.858Z,0.47
2022-10-15T23:00:31.148Z,0.40
2022-10-15T23:02:57.447Z,0.40
2022-10-15T23:05:23.770Z,0.50
2022-10-15T23:07:50.068Z,0.60
2022-10-15T23:10:16.440Z,0.50
2022-10-15T23:12:42.816Z,0.40
2022-10-15T23:15:09.490Z,0.50
2022-10-15T23:17:35.741Z,0.40
2022-10-15T23:20:02.035Z,0.40
2022-10-15T23:22:28.561Z,0.40
2022-10-15T23:24:54.998Z,0.50
2022-10-15T23:27:21.323Z,0.40
2022-10-15T23:29:53.515Z,0.50
2022-10-15T23:32:28.288Z,0.50
2022-10-15T23:34:54.595Z,0.38
2022-10-15T23:37:20.881Z,0.50
2022-10-15T23:39:47.379Z,0.40
2022-10-15T23:42:13.666Z,0.57
2022-10-15T23:44:39.997Z,0.40
2022-10-15T23:47:06.334Z,0.50
2022-10-15T23:49:32.623Z,0.40
2022-10-15T23:51:59.406Z,0.38
2022-10-15T23:54:25.691Z,0.45
2022-10-15T23:56:52.065Z,0.32
2022-10-15T23:59:18.431Z,0.30
